createdAt,value
2022-08-18T00:02:12.754Z,23.29
2022-08-18T00:04:49.022Z,23.25
2022-08-18T00:07:19.496Z,23.24
2022-08-18T00:09:47.925Z,23.20
2022-08-18T00:12:17.326Z,23.16
2022-08-18T00:14:45.856Z,23.13
2022-08-18T00:17:15.232Z,23.08
2022-08-18T00:19:46.238Z,23.06
2022-08-18T00:22:17.071Z,23.01
2022-08-18T00:24:48.497Z,22.89
2022-08-18T00:27:23.067Z,22.88
2022-08-18T00:29:52.087Z,22.86
2022-08-18T00:32:22.220Z,22.86
2022-08-18T00:34:50.254Z,22.83
2022-08-18T00:39:47.948Z,22.87
2022-08-18T00:42:29.123Z,22.88
2022-08-18T00:45:00.669Z,22.92
2022-08-18T00:47:42.378Z,22.95
2022-08-18T00:50:15.026Z,22.96
2022-08-18T00:52:45.173Z,22.97
2022-08-18T00:55:13.157Z,22.95
2022-08-18T00:57:42.837Z,22.92
2022-08-18T01:00:13.734Z,22.90
2022-08-18T01:02:44.014Z,22.89
2022-08-18T01:05:13.757Z,22.88
2022-08-18T01:07:44.322Z,22.88
2022-08-18T01:10:16.406Z,22.91
2022-08-18T01:12:46.911Z,22.94
2022-08-18T01:15:29.622Z,22.93
2022-08-18T01:18:17.535Z,22.91
2022-08-18T01:21:09.422Z,22.91
2022-08-18T01:23:38.791Z,22.89
2022-08-18T01:26:06.391Z,22.90
2022-08-18T01:28:35.422Z,22.93
2022-08-18T01:31:04.169Z,22.92
2022-08-18T01:33:33.585Z,22.91
2022-08-18T01:36:03.816Z,22.90
2022-08-18T01:38:32.572Z,22.89
2022-08-18T01:41:26.417Z,22.89
2022-08-18T01:43:49.977Z,22.88
2022-08-18T01:46:20.053Z,22.87
2022-08-18T01:48:48.332Z,22.84
2022-08-18T01:51:17.876Z,22.81
2022-08-18T01:53:46.255Z,22.77
2022-08-18T01:56:17.780Z,22.72
2022-08-18T01:58:47.744Z,22.66
2022-08-18T02:01:15.861Z,22.60
2022-08-18T02:03:45.886Z,22.55
2022-08-18T02:06:15.167Z,22.48
2022-08-18T02:08:49.872Z,22.41
2022-08-18T02:11:23.682Z,22.36
2022-08-18T02:16:19.871Z,22.25
2022-08-18T02:18:48.950Z,22.20
2022-08-18T02:21:19.382Z,22.15
2022-08-18T02:23:53.214Z,21.85
2022-08-18T02:26:23.385Z,22.09
2022-08-18T02:28:51.352Z,22.08
2022-08-18T02:31:20.376Z,22.09
2022-08-18T02:33:52.014Z,22.11
2022-08-18T02:36:20.712Z,22.13
2022-08-18T02:38:59.956Z,22.15
2022-08-18T02:41:30.160Z,22.18
2022-08-18T02:43:58.353Z,22.17
2022-08-18T02:46:29.722Z,22.15
2022-08-18T02:48:58.400Z,22.11
2022-08-18T02:51:26.534Z,22.08
2022-08-18T02:53:54.582Z,22.03
2022-08-18T02:56:40.677Z,21.98
2022-08-18T02:59:12.731Z,21.94
2022-08-18T03:01:41.874Z,21.93
2022-08-18T03:04:10.770Z,21.79
2022-08-18T03:06:39.462Z,21.84
2022-08-18T03:09:08.477Z,21.79
2022-08-18T03:11:36.523Z,21.76
2022-08-18T03:14:05.371Z,21.74
2022-08-18T03:16:35.286Z,21.72
2022-08-18T03:19:03.344Z,21.69
2022-08-18T03:21:32.317Z,21.65
2022-08-18T03:24:01.832Z,21.57
2022-08-18T03:26:31.235Z,21.63
2022-08-18T03:29:00.128Z,21.59
2022-08-18T03:31:30.098Z,21.58
2022-08-18T03:34:00.014Z,21.45
2022-08-18T03:36:29.022Z,21.59
2022-08-18T03:38:57.125Z,21.60
2022-08-18T03:41:56.909Z,21.60
2022-08-18T03:44:15.310Z,21.57
2022-08-18T03:46:43.505Z,21.56
2022-08-18T03:49:13.446Z,21.58
2022-08-18T03:51:44.185Z,21.60
2022-08-18T03:54:13.359Z,21.62
2022-08-18T03:56:42.085Z,21.65
2022-08-18T03:59:12.932Z,21.66
2022-08-18T04:01:42.473Z,21.72
2022-08-18T04:04:13.755Z,21.73
2022-08-18T04:06:42.504Z,21.76
2022-08-18T04:09:12.008Z,21.80
2022-08-18T04:11:43.319Z,21.84
2022-08-18T04:14:13.194Z,21.91
2022-08-18T04:16:41.358Z,21.95
2022-08-18T04:19:09.456Z,21.97
2022-08-18T04:21:39.559Z,22.00
2022-08-18T04:24:08.341Z,22.03
2022-08-18T04:26:39.222Z,22.02
2022-08-18T04:29:07.771Z,22.02
2022-08-18T04:31:35.788Z,22.06
2022-08-18T04:34:04.507Z,22.09
2022-08-18T04:36:34.193Z,22.10
2022-08-18T04:39:03.840Z,22.11
2022-08-18T04:41:31.849Z,21.90
2022-08-18T04:44:00.569Z,22.18
2022-08-18T04:46:28.849Z,22.19
2022-08-18T04:48:59.142Z,22.23
2022-08-18T04:52:31.039Z,22.25
2022-08-18T04:54:16.632Z,22.25
2022-08-18T04:56:45.115Z,22.25
2022-08-18T04:59:14.065Z,22.27
2022-08-18T05:01:43.343Z,22.29
2022-08-18T05:04:14.321Z,22.33
2022-08-18T05:06:42.642Z,22.33
2022-08-18T05:09:11.130Z,22.33
2022-08-18T05:11:40.569Z,22.30
2022-08-18T05:14:09.276Z,22.35
2022-08-18T05:16:42.189Z,22.24
2022-08-18T05:19:19.858Z,22.36
2022-08-18T05:21:50.900Z,22.37
2022-08-18T05:24:19.817Z,22.35
2022-08-18T05:26:49.213Z,22.37
2022-08-18T05:29:18.383Z,22.43
2022-08-18T05:31:47.387Z,22.44
2022-08-18T05:34:15.330Z,22.45
2022-08-18T05:36:57.880Z,22.48
2022-08-18T05:39:27.006Z,22.50
2022-08-18T05:41:59.644Z,22.52
2022-08-18T05:44:28.536Z,22.57
2022-08-18T05:46:57.330Z,22.62
2022-08-18T05:49:26.422Z,22.66
2022-08-18T05:51:56.418Z,22.64
2022-08-18T05:54:41.705Z,22.74
2022-08-18T05:57:13.500Z,22.76
2022-08-18T05:59:44.803Z,22.80
2022-08-18T06:02:17.522Z,22.73
2022-08-18T06:04:48.215Z,22.87
2022-08-18T06:07:18.258Z,22.90
2022-08-18T06:09:48.817Z,22.93
2022-08-18T06:12:23.742Z,22.96
2022-08-18T06:14:52.556Z,23.00
2022-08-18T06:17:44.844Z,23.07
2022-08-18T06:20:19.861Z,23.12
2022-08-18T06:22:55.273Z,23.19
2022-08-18T06:25:26.725Z,23.14
2022-08-18T06:27:58.697Z,23.32
2022-08-18T06:30:33.147Z,23.36
2022-08-18T06:33:14.594Z,23.36
2022-08-18T06:35:45.681Z,23.38
2022-08-18T06:38:45.260Z,23.40
2022-08-18T06:41:42.760Z,23.37
2022-08-18T06:44:10.334Z,23.35
2022-08-18T06:46:42.475Z,23.33
2022-08-18T06:49:11.744Z,23.46
2022-08-18T06:51:40.902Z,23.58
2022-08-18T06:54:09.756Z,23.63
2022-08-18T06:56:47.993Z,23.70
2022-08-18T06:59:23.681Z,23.71
2022-08-18T07:01:53.274Z,23.70
2022-08-18T07:04:45.021Z,23.68
2022-08-18T07:07:15.483Z,23.62
2022-08-18T07:09:43.540Z,23.29
2022-08-18T07:12:11.867Z,23.53
2022-08-18T07:14:48.526Z,23.55
2022-08-18T07:17:22.326Z,23.68
2022-08-18T07:20:12.093Z,23.82
2022-08-18T07:22:55.918Z,23.93
2022-08-18T07:25:25.907Z,23.95
2022-08-18T07:27:56.272Z,23.98
2022-08-18T07:30:32.394Z,24.08
2022-08-18T07:33:04.295Z,24.26
2022-08-18T07:35:39.206Z,24.37
2022-08-18T07:38:40.790Z,24.60
2022-08-18T07:41:00.457Z,24.74
2022-08-18T07:43:30.226Z,24.82
2022-08-18T07:46:04.110Z,25.03
2022-08-18T07:48:40.628Z,25.13
2022-08-18T07:51:13.674Z,25.22
2022-08-18T07:53:55.786Z,25.24
2022-08-18T07:56:30.673Z,25.19
2022-08-18T07:58:59.939Z,25.14
2022-08-18T08:01:35.099Z,25.13
2022-08-18T08:04:08.188Z,25.11
2022-08-18T08:06:40.377Z,25.13
2022-08-18T08:09:11.417Z,25.20
2022-08-18T08:11:46.211Z,25.25
2022-08-18T08:14:26.599Z,25.27
2022-08-18T08:17:00.926Z,25.17
2022-08-18T08:20:00.157Z,25.16
2022-08-18T08:22:32.683Z,25.14
2022-08-18T08:25:13.549Z,25.12
2022-08-18T08:28:00.427Z,25.07
2022-08-18T08:30:29.343Z,25.08
2022-08-18T08:33:04.758Z,25.12
2022-08-18T08:35:49.338Z,25.14
2022-08-18T08:38:40.321Z,25.08
2022-08-18T08:41:10.556Z,25.18
2022-08-18T08:43:41.248Z,25.10
2022-08-18T08:46:11.482Z,25.11
2022-08-18T08:48:44.346Z,25.03
2022-08-18T08:51:39.726Z,25.08
2022-08-18T08:54:10.667Z,25.05
2022-08-18T08:56:46.483Z,25.04
2022-08-18T08:59:15.716Z,25.14
2022-08-18T09:01:47.842Z,25.16
2022-08-18T09:04:30.096Z,25.13
2022-08-18T09:07:14.403Z,25.05
2022-08-18T09:09:53.435Z,25.06
2022-08-18T09:12:28.420Z,25.13
2022-08-18T09:15:10.914Z,25.19
2022-08-18T09:17:55.589Z,25.24
2022-08-18T09:20:35.201Z,25.28
2022-08-18T09:23:05.699Z,25.27
2022-08-18T09:25:44.979Z,25.29
2022-08-18T09:28:14.290Z,25.37
2022-08-18T09:33:36.085Z,25.55
2022-08-18T09:36:20.198Z,25.60
2022-08-18T09:39:08.533Z,25.58
2022-08-18T09:41:45.608Z,25.50
2022-08-18T09:44:55.952Z,25.57
2022-08-18T09:47:58.405Z,25.69
2022-08-18T09:51:26.521Z,25.90
2022-08-18T09:54:14.738Z,26.01
2022-08-18T09:57:20.560Z,26.07
2022-08-18T10:00:28.294Z,26.18
2022-08-18T10:03:13.667Z,26.23
2022-08-18T10:05:56.793Z,26.33
2022-08-18T10:08:56.063Z,26.41
2022-08-18T10:11:30.885Z,26.42
2022-08-18T10:14:10.087Z,26.42
2022-08-18T10:17:13.412Z,26.40
2022-08-18T10:19:39.704Z,26.42
2022-08-18T10:22:38.413Z,26.45
2022-08-18T10:25:22.128Z,26.49
2022-08-18T10:27:54.877Z,26.37
2022-08-18T10:34:23.355Z,26.25
2022-08-18T10:36:53.586Z,26.20
2022-08-18T10:39:23.246Z,26.22
2022-08-18T10:42:01.611Z,26.12
2022-08-18T10:44:31.651Z,25.98
2022-08-18T10:47:00.464Z,26.06
2022-08-18T10:49:29.323Z,26.07
2022-08-18T10:52:20.794Z,26.11
2022-08-18T10:55:03.909Z,26.07
2022-08-18T10:57:36.487Z,25.98
2022-08-18T11:00:09.686Z,25.95
2022-08-18T11:03:01.973Z,26.03
2022-08-18T11:08:20.879Z,26.26
2022-08-18T11:11:34.543Z,26.46
2022-08-18T11:13:49.862Z,26.57
2022-08-18T11:16:26.185Z,26.72
2022-08-18T11:18:58.266Z,26.91
2022-08-18T11:21:33.563Z,27.06
2022-08-18T11:24:10.066Z,27.17
2022-08-18T11:26:39.219Z,27.26
2022-08-18T11:29:29.216Z,27.54
2022-08-18T11:32:04.360Z,27.59
2022-08-18T11:34:41.168Z,27.68
2022-08-18T11:37:23.591Z,27.57
2022-08-18T11:39:52.557Z,27.45
2022-08-18T11:42:25.037Z,27.28
2022-08-18T11:44:55.424Z,27.18
2022-08-18T11:47:28.004Z,27.10
2022-08-18T11:50:00.294Z,26.98
2022-08-18T11:52:35.126Z,26.92
2022-08-18T11:55:14.755Z,26.83
2022-08-18T11:57:53.558Z,26.82
2022-08-18T12:00:57.212Z,26.86
2022-08-18T12:03:39.986Z,26.88
2022-08-18T12:06:19.944Z,26.98
2022-08-18T12:08:57.118Z,26.88
2022-08-18T12:11:28.828Z,26.89
2022-08-18T12:14:31.301Z,26.90
2022-08-18T12:16:56.002Z,26.97
2022-08-18T12:19:28.054Z,27.05
2022-08-18T12:21:57.473Z,27.11
2022-08-18T12:24:34.576Z,27.13
2022-08-18T12:27:20.478Z,27.01
2022-08-18T12:29:50.390Z,26.95
2022-08-18T12:32:49.012Z,26.80
2022-08-18T12:35:10.275Z,26.64
2022-08-18T12:40:27.954Z,26.45
2022-08-18T12:42:56.379Z,26.35
2022-08-18T12:45:27.262Z,26.30
2022-08-18T12:47:55.662Z,26.20
2022-08-18T12:50:31.076Z,26.14
2022-08-18T12:53:01.130Z,26.07
2022-08-18T12:55:29.889Z,26.06
2022-08-18T12:57:57.881Z,26.03
2022-08-18T13:00:27.989Z,25.92
2022-08-18T13:02:57.610Z,25.89
2022-08-18T13:05:29.694Z,25.85
2022-08-18T13:07:59.052Z,25.77
2022-08-18T13:10:44.847Z,25.72
2022-08-18T13:13:14.710Z,25.67
2022-08-18T13:15:55.419Z,25.65
2022-08-18T13:18:28.961Z,25.73
2022-08-18T13:20:58.926Z,25.80
2022-08-18T13:23:27.643Z,25.83
2022-08-18T13:25:55.905Z,25.88
2022-08-18T13:28:30.646Z,25.90
2022-08-18T13:31:01.850Z,25.96
2022-08-18T13:33:34.505Z,26.01
2022-08-18T13:36:10.944Z,25.95
2022-08-18T13:38:40.484Z,25.94
2022-08-18T13:41:15.836Z,26.01
2022-08-18T13:43:47.887Z,26.05
2022-08-18T13:46:18.475Z,26.09
2022-08-18T13:48:47.768Z,26.13
2022-08-18T13:51:19.296Z,26.16
2022-08-18T13:53:58.991Z,26.15
2022-08-18T13:56:34.760Z,26.10
2022-08-18T13:59:05.071Z,26.05
2022-08-18T14:01:44.266Z,26.03
2022-08-18T14:04:20.454Z,25.95
2022-08-18T14:06:57.162Z,25.91
2022-08-18T14:09:36.034Z,25.92
2022-08-18T14:12:07.132Z,25.87
2022-08-18T14:14:44.160Z,25.82
2022-08-18T14:17:12.561Z,25.76
2022-08-18T14:19:58.016Z,25.76
2022-08-18T14:22:45.081Z,25.69
2022-08-18T14:25:30.462Z,25.79
2022-08-18T14:27:59.093Z,25.87
2022-08-18T14:30:32.253Z,25.87
2022-08-18T14:33:00.470Z,25.95
2022-08-18T14:36:03.641Z,26.05
2022-08-18T14:38:18.890Z,25.99
2022-08-18T14:40:49.137Z,25.98
2022-08-18T14:43:18.558Z,26.02
2022-08-18T14:45:48.877Z,26.03
2022-08-18T14:48:17.655Z,26.11
2022-08-18T14:50:49.316Z,26.14
2022-08-18T14:53:20.188Z,26.16
2022-08-18T14:55:52.011Z,26.11
2022-08-18T14:58:20.208Z,26.01
2022-08-18T15:00:53.294Z,25.97
2022-08-18T15:03:28.236Z,25.88
2022-08-18T15:05:59.084Z,26.01
2022-08-18T15:08:28.853Z,26.01
2022-08-18T15:10:57.436Z,26.05
2022-08-18T15:13:26.587Z,26.02
2022-08-18T15:15:55.925Z,26.01
2022-08-18T15:18:31.297Z,26.03
2022-08-18T15:21:19.462Z,25.95
2022-08-18T15:24:21.311Z,25.95
2022-08-18T15:26:51.657Z,26.01
2022-08-18T15:29:27.765Z,26.15
2022-08-18T15:32:02.271Z,26.30
2022-08-18T15:34:47.381Z,26.32
2022-08-18T15:37:22.208Z,26.32
2022-08-18T15:40:02.473Z,26.33
2022-08-18T15:42:30.880Z,26.35
2022-08-18T15:45:11.985Z,26.30
2022-08-18T15:47:42.071Z,26.35
2022-08-18T15:50:25.634Z,26.34
2022-08-18T15:52:56.150Z,26.42
2022-08-18T15:55:26.490Z,26.37
2022-08-18T15:57:57.993Z,26.32
2022-08-18T16:00:27.314Z,26.25
2022-08-18T16:02:58.691Z,26.17
2022-08-18T16:05:29.121Z,26.12
2022-08-18T16:07:58.836Z,26.09
2022-08-18T16:10:32.285Z,26.06
2022-08-18T16:13:01.694Z,26.08
2022-08-18T16:15:30.894Z,26.17
2022-08-18T16:17:59.713Z,26.24
2022-08-18T16:20:29.397Z,26.34
2022-08-18T16:22:58.598Z,26.51
2022-08-18T16:25:28.030Z,26.65
2022-08-18T16:27:56.108Z,26.69
2022-08-18T16:30:25.061Z,26.72
2022-08-18T16:32:53.448Z,26.70
2022-08-18T16:35:21.846Z,26.64
2022-08-18T16:37:50.301Z,26.64
2022-08-18T16:40:19.231Z,26.62
2022-08-18T16:42:53.895Z,26.56
2022-08-18T16:45:22.542Z,26.48
2022-08-18T16:47:50.548Z,26.39
2022-08-18T16:50:19.384Z,26.38
2022-08-18T16:52:47.534Z,26.35
2022-08-18T16:55:15.669Z,26.34
2022-08-18T16:58:01.825Z,26.27
2022-08-18T17:00:54.460Z,26.23
2022-08-18T17:03:40.885Z,26.12
2022-08-18T17:06:10.918Z,26.04
2022-08-18T17:08:39.163Z,26.00
2022-08-18T17:11:09.488Z,25.93
2022-08-18T17:13:37.924Z,25.88
2022-08-18T17:16:07.750Z,25.88
2022-08-18T17:18:36.164Z,25.88
2022-08-18T17:21:05.047Z,25.79
2022-08-18T17:23:33.032Z,25.73
2022-08-18T17:26:02.653Z,25.69
2022-08-18T17:28:35.097Z,25.68
2022-08-18T17:31:03.547Z,25.67
2022-08-18T17:33:33.989Z,25.67
2022-08-18T17:36:05.028Z,25.60
2022-08-18T17:38:36.873Z,25.55
2022-08-18T17:41:05.081Z,25.51
2022-08-18T17:43:34.038Z,25.49
2022-08-18T17:46:04.151Z,25.41
2022-08-18T17:48:35.213Z,25.39
2022-08-18T17:51:22.226Z,25.26
2022-08-18T17:53:50.244Z,25.31
2022-08-18T17:56:19.754Z,25.27
2022-08-18T17:58:53.280Z,25.23
2022-08-18T18:01:21.339Z,25.20
2022-08-18T18:03:51.688Z,25.17
2022-08-18T18:06:31.789Z,25.10
2022-08-18T18:09:01.208Z,25.04
2022-08-18T18:11:32.392Z,25.02
2022-08-18T18:14:01.193Z,24.98
2022-08-18T18:16:35.118Z,24.93
2022-08-18T18:19:07.628Z,24.89
2022-08-18T18:22:00.383Z,24.86
2022-08-18T18:24:29.925Z,24.82
2022-08-18T18:26:58.346Z,24.82
2022-08-18T18:29:32.417Z,24.80
2022-08-18T18:32:03.545Z,24.71
2022-08-18T18:34:39.677Z,24.74
2022-08-18T18:37:23.712Z,24.74
2022-08-18T18:39:56.343Z,24.74
2022-08-18T18:42:25.998Z,24.72
2022-08-18T18:44:55.368Z,24.73
2022-08-18T18:47:37.432Z,24.70
2022-08-18T18:50:09.103Z,24.76
2022-08-18T18:52:42.257Z,24.70
2022-08-18T18:55:14.958Z,24.68
2022-08-18T18:57:46.077Z,24.55
2022-08-18T19:00:20.607Z,24.59
2022-08-18T19:02:55.082Z,24.49
2022-08-18T19:05:29.329Z,24.51
2022-08-18T19:08:03.930Z,24.46
2022-08-18T19:10:36.059Z,24.42
2022-08-18T19:13:06.037Z,24.38
2022-08-18T19:15:38.106Z,24.38
2022-08-18T19:18:15.793Z,24.39
2022-08-18T19:22:02.120Z,24.39
2022-08-18T19:23:45.236Z,24.26
2022-08-18T19:26:15.607Z,24.28
2022-08-18T19:29:12.409Z,24.28
2022-08-18T19:31:36.343Z,24.29
2022-08-18T19:34:08.464Z,24.28
2022-08-18T19:36:43.889Z,24.28
2022-08-18T19:39:14.200Z,24.28
2022-08-18T19:41:47.173Z,24.27
2022-08-18T19:44:38.121Z,24.25
2022-08-18T19:47:09.909Z,24.22
2022-08-18T19:49:41.902Z,24.14
2022-08-18T19:52:46.709Z,24.16
2022-08-18T19:55:19.943Z,24.02
2022-08-18T19:58:10.638Z,23.99
2022-08-18T20:00:42.661Z,23.95
2022-08-18T20:03:48.705Z,23.91
2022-08-18T20:06:35.903Z,23.89
2022-08-18T20:09:21.321Z,23.93
2022-08-18T20:11:57.289Z,23.86
2022-08-18T20:14:25.685Z,23.87
2022-08-18T20:17:14.527Z,23.85
2022-08-18T20:19:45.746Z,23.82
2022-08-18T20:22:29.326Z,23.85
2022-08-18T20:25:06.152Z,23.82
2022-08-18T20:27:36.545Z,23.84
2022-08-18T20:30:32.858Z,23.85
2022-08-18T20:33:30.194Z,23.87
2022-08-18T20:36:07.117Z,23.87
2022-08-18T20:38:37.009Z,23.90
2022-08-18T20:41:39.088Z,23.93
2022-08-18T20:44:37.989Z,23.88
2022-08-18T20:47:14.437Z,23.86
2022-08-18T20:49:50.417Z,23.83
2022-08-18T20:52:24.353Z,23.83
2022-08-18T20:55:03.214Z,23.80
2022-08-18T20:57:41.309Z,23.78
2022-08-18T21:00:15.728Z,23.75
2022-08-18T21:02:50.251Z,23.75
2022-08-18T21:05:27.796Z,23.78
2022-08-18T21:08:02.372Z,23.73
2022-08-18T21:10:31.096Z,23.73
2022-08-18T21:13:01.742Z,23.72
2022-08-18T21:15:30.831Z,23.71
2022-08-18T21:18:00.216Z,23.70
2022-08-18T21:20:28.326Z,23.72
2022-08-18T21:23:04.422Z,23.74
2022-08-18T21:25:33.680Z,23.66
2022-08-18T21:28:04.025Z,23.68
2022-08-18T21:30:32.982Z,23.61
2022-08-18T21:33:02.120Z,23.58
2022-08-18T21:35:31.095Z,23.56
2022-08-18T21:38:00.795Z,23.54
2022-08-18T21:40:30.964Z,23.50
2022-08-18T21:42:59.484Z,23.47
2022-08-18T21:45:29.348Z,23.45
2022-08-18T21:47:58.550Z,23.41
2022-08-18T21:50:27.472Z,23.41
2022-08-18T21:52:56.415Z,23.42
2022-08-18T21:55:30.284Z,23.39
2022-08-18T21:58:08.581Z,23.38
2022-08-18T22:00:39.070Z,23.35
2022-08-18T22:03:25.740Z,23.37
2022-08-18T22:06:00.840Z,23.36
2022-08-18T22:08:30.053Z,23.35
2022-08-18T22:11:59.809Z,23.38
2022-08-18T22:14:36.260Z,23.29
2022-08-18T22:17:33.048Z,23.33
2022-08-18T22:20:38.480Z,23.36
2022-08-18T22:23:28.024Z,23.36
2022-08-18T22:26:06.537Z,23.38
2022-08-18T22:28:34.683Z,23.37
2022-08-18T22:31:02.720Z,23.38
2022-08-18T22:33:32.248Z,23.39
2022-08-18T22:36:00.408Z,23.36
2022-08-18T22:38:28.533Z,23.34
2022-08-18T22:40:56.847Z,23.32
2022-08-18T22:43:24.888Z,23.27
2022-08-18T22:45:52.934Z,23.20
2022-08-18T22:48:20.967Z,23.21
2022-08-18T22:50:51.489Z,23.17
2022-08-18T22:53:19.509Z,23.15
2022-08-18T22:55:47.532Z,23.11
2022-08-18T22:58:16.000Z,23.10
2022-08-18T23:00:49.668Z,23.09
2022-08-18T23:03:17.774Z,23.11
2022-08-18T23:05:45.989Z,23.13
2022-08-18T23:08:15.450Z,22.91
2022-08-18T23:10:43.608Z,23.12
2022-08-18T23:13:11.727Z,23.13
2022-08-18T23:15:46.749Z,23.16
2022-08-18T23:18:19.865Z,23.16
2022-08-18T23:20:49.080Z,23.18
2022-08-18T23:23:19.101Z,23.16
2022-08-18T23:25:47.724Z,23.20
2022-08-18T23:28:15.790Z,23.21
2022-08-18T23:30:44.623Z,23.24
2022-08-18T23:33:13.711Z,23.23
2022-08-18T23:35:41.996Z,23.24
2022-08-18T23:38:10.292Z,23.18
2022-08-18T23:40:40.270Z,23.18
2022-08-18T23:43:08.266Z,23.15
2022-08-18T23:45:36.331Z,23.15
2022-08-18T23:48:05.940Z,23.15
2022-08-18T23:50:34.222Z,23.14
2022-08-18T23:53:02.855Z,23.14
2022-08-18T23:55:31.047Z,23.12
2022-08-18T23:58:00.365Z,23.11
